Time;durP1;ratioP1;P1;durP2;ratioP2;P2;SDS_P1;SDS_P2;PMS_P1;PMS_P2;Temp;Humidity;BMP_temperature;BMP_pressure;BME280_temperature;BME280_humidity;BME280_pressure;Samples;Min_cycle;Max_cycle;Signal;HPM_P1;HPM_P2
2021/08/25 00:01:27;;;;;;;;;7.00;7.00;;;;;;;;5122843;27;45371;-75
2021/08/25 00:03:53;;;;;;;;;9.67;8.00;;;;;;;;5123377;27;45433;-74
2021/08/25 00:06:30;;;;;;;;;9.00;9.00;;;;;;;;5123146;27;45389;-74
2021/08/25 00:08:57;;;;;;;;;10.33;9.00;;;;;;;;5123114;27;46697;-74
2021/08/25 00:11:22;;;;;;;;;10.33;9.67;;;;;;;;5123230;27;45882;-75
2021/08/25 00:13:48;;;;;;;;;8.67;8.33;;;;;;;;5123230;27;45451;-75
2021/08/25 00:16:13;;;;;;;;;10.00;8.67;;;;;;;;5122904;27;45274;-77
2021/08/25 00:18:39;;;;;;;;;9.67;8.00;;;;;;;;5122968;27;47378;-76
2021/08/25 00:21:04;;;;;;;;;9.00;8.00;;;;;;;;5123002;27;45284;-76
2021/08/25 00:23:33;;;;;;;;;13.33;12.67;;;;;;;;5125650;27;45353;-76
2021/08/25 00:25:58;;;;;;;;;10.00;8.00;;;;;;;;5142990;27;45608;-76
2021/08/25 00:28:24;;;;;;;;;9.33;9.00;;;;;;;;5143442;27;46263;-74
2021/08/25 00:30:59;;;;;;;;;8.67;7.00;;;;;;;;5143593;27;45329;-76
2021/08/25 00:33:24;;;;;;;;;8.00;7.67;;;;;;;;5143742;27;45373;-77
2021/08/25 00:35:49;;;;;;;;;11.67;10.67;;;;;;;;5143596;27;45560;-75
2021/08/25 00:38:15;;;;;;;;;10.00;10.00;;;;;;;;5143335;27;45560;-77
2021/08/25 00:40:49;;;;;;;;;10.00;9.00;;;;;;;;5147312;27;45336;-77
2021/08/25 00:43:14;;;;;;;;;7.67;6.33;;;;;;;;5147335;27;45383;-74
2021/08/25 00:45:44;;;;;;;;;7.33;7.00;;;;;;;;5147165;27;45794;-74
2021/08/25 00:48:12;;;;;;;;;12.00;10.00;;;;;;;;5146855;27;45635;-74
2021/08/25 00:50:38;;;;;;;;;8.00;7.67;;;;;;;;5147057;27;45332;-75
2021/08/25 00:53:03;;;;;;;;;8.33;8.33;;;;;;;;5147148;27;45324;-75
2021/08/25 00:55:30;;;;;;;;;7.00;6.00;;;;;;;;5146381;27;45653;-75
2021/08/25 00:57:56;;;;;;;;;8.33;8.33;;;;;;;;5146967;27;45546;-76
2021/08/25 01:00:23;;;;;;;;;10.00;8.00;;;;;;;;5146999;27;45329;-77
2021/08/25 01:02:57;;;;;;;;;8.33;8.33;;;;;;;;5147099;27;45316;-77
2021/08/25 01:05:23;;;;;;;;;7.00;7.00;;;;;;;;5146515;27;45482;-77
2021/08/25 01:07:48;;;;;;;;;9.00;9.00;;;;;;;;5146507;27;45577;-77
2021/08/25 01:10:27;;;;;;;;;8.33;8.00;;;;;;;;5146536;27;45382;-74
2021/08/25 01:12:55;;;;;;;;;10.00;10.00;;;;;;;;5146961;27;45305;-75
2021/08/25 01:15:20;;;;;;;;;9.67;9.00;;;;;;;;5146216;27;45406;-74
2021/08/25 01:17:46;;;;;;;;;11.33;11.00;;;;;;;;5146295;27;46815;-74
2021/08/25 01:20:24;;;;;;;;;10.00;9.00;;;;;;;;5165201;27;45175;-75
2021/08/25 01:22:50;;;;;;;;;9.67;9.67;;;;;;;;5144987;27;45288;-74
2021/08/25 01:25:21;;;;;;;;;9.67;9.67;;;;;;;;5142799;27;45398;-75
2021/08/25 01:27:52;;;;;;;;;11.00;11.00;;;;;;;;5142791;27;45787;-77
2021/08/25 01:30:19;;;;;;;;;10.67;10.00;;;;;;;;5137675;27;45370;-77
2021/08/25 01:32:44;;;;;;;;;10.67;10.00;;;;;;;;5125794;27;45326;-77
2021/08/25 01:35:22;;;;;;;;;11.00;10.33;;;;;;;;5143935;27;45510;-77
2021/08/25 01:37:48;;;;;;;;;9.00;9.00;;;;;;;;5125305;27;47147;-77
2021/08/25 01:40:14;;;;;;;;;12.00;11.67;;;;;;;;5125384;27;45286;-75
2021/08/25 01:42:39;;;;;;;;;10.33;8.33;;;;;;;;5125418;27;45383;-75
2021/08/25 01:45:05;;;;;;;;;9.33;8.00;;;;;;;;5125413;27;45556;-74
2021/08/25 01:47:31;;;;;;;;;8.33;8.00;;;;;;;;5125378;27;45764;-74
2021/08/25 01:49:57;;;;;;;;;8.00;8.00;;;;;;;;5124688;27;45362;-75
2021/08/25 01:52:23;;;;;;;;;13.67;13.33;;;;;;;;5125468;27;45349;-75
2021/08/25 01:54:49;;;;;;;;;10.67;10.67;;;;;;;;5143829;27;45476;-77
2021/08/25 01:57:15;;;;;;;;;11.33;11.33;;;;;;;;5125235;27;47706;-77
2021/08/25 01:59:41;;;;;;;;;9.00;9.00;;;;;;;;5125215;27;45508;-76
2021/08/25 02:02:08;;;;;;;;;10.67;9.33;;;;;;;;5125273;27;45234;-76
2021/08/25 02:04:34;;;;;;;;;8.67;7.67;;;;;;;;5125234;27;45273;-77
2021/08/25 02:07:00;;;;;;;;;8.00;8.00;;;;;;;;5124804;27;46377;-74
2021/08/25 02:09:35;;;;;;;;;10.00;10.00;;;;;;;;5143157;27;45436;-75
2021/08/25 02:12:00;;;;;;;;;11.67;11.67;;;;;;;;5125129;27;45327;-75
2021/08/25 02:14:26;;;;;;;;;9.00;9.00;;;;;;;;5124949;27;45548;-74
2021/08/25 02:16:51;;;;;;;;;9.00;9.00;;;;;;;;5125034;27;46945;-74
2021/08/25 02:19:23;;;;;;;;;10.67;9.00;;;;;;;;5124931;27;45337;-75
2021/08/25 02:21:49;;;;;;;;;14.00;12.00;;;;;;;;5124999;27;45225;-75
2021/08/25 02:24:19;;;;;;;;;7.67;7.67;;;;;;;;5130275;27;45723;-77
2021/08/25 02:26:44;;;;;;;;;9.00;9.00;;;;;;;;5141725;27;45857;-78
2021/08/25 02:29:10;;;;;;;;;12.33;10.67;;;;;;;;5141913;27;45364;-77
2021/08/25 02:31:36;;;;;;;;;10.33;8.33;;;;;;;;5141988;27;45295;-77
2021/08/25 02:34:01;;;;;;;;;9.00;9.00;;;;;;;;5141825;27;45478;-76
2021/08/25 02:36:28;;;;;;;;;11.00;11.00;;;;;;;;5141674;27;45349;-75
2021/08/25 02:38:54;;;;;;;;;9.33;9.33;;;;;;;;5141833;27;45256;-75
2021/08/25 02:41:20;;;;;;;;;12.00;9.00;;;;;;;;5141928;27;45423;-75
2021/08/25 02:43:48;;;;;;;;;10.00;10.00;;;;;;;;5141715;27;45372;-75
2021/08/25 02:46:13;;;;;;;;;11.67;10.33;;;;;;;;5141604;27;48028;-74
2021/08/25 02:48:39;;;;;;;;;7.67;7.67;;;;;;;;5141640;27;45309;-75
2021/08/25 02:51:04;;;;;;;;;11.00;11.00;;;;;;;;5142158;27;45660;-74
2021/08/25 02:53:30;;;;;;;;;9.00;8.00;;;;;;;;5141425;27;46355;-77
2021/08/25 02:55:55;;;;;;;;;11.00;9.33;;;;;;;;5141487;27;46754;-77
2021/08/25 02:58:21;;;;;;;;;9.00;9.00;;;;;;;;5141504;27;45301;-77
2021/08/25 03:00:46;;;;;;;;;9.00;9.00;;;;;;;;5143111;27;45145;-77
2021/08/25 03:03:12;;;;;;;;;12.33;10.00;;;;;;;;5142959;27;45312;-77
2021/08/25 03:05:37;;;;;;;;;9.00;9.00;;;;;;;;5141539;27;47671;-75
2021/08/25 03:08:03;;;;;;;;;11.67;10.00;;;;;;;;5141226;27;45249;-74
2021/08/25 03:10:28;;;;;;;;;10.00;10.00;;;;;;;;5141586;27;45241;-75
2021/08/25 03:12:53;;;;;;;;;12.00;11.00;;;;;;;;5141335;27;46423;-75
2021/08/25 03:15:19;;;;;;;;;11.00;10.67;;;;;;;;5141068;27;46365;-74
2021/08/25 03:17:44;;;;;;;;;13.33;13.00;;;;;;;;5141363;27;45236;-74
2021/08/25 03:20:13;;;;;;;;;11.00;11.00;;;;;;;;5141451;27;45377;-75
2021/08/25 03:22:39;;;;;;;;;9.67;9.67;;;;;;;;5141168;27;45554;-74
2021/08/25 03:25:05;;;;;;;;;12.00;11.00;;;;;;;;5140398;27;47577;-75
2021/08/25 03:27:48;;;;;;;;;13.00;13.00;;;;;;;;5141253;27;45301;-75
2021/08/25 03:30:14;;;;;;;;;11.50;11.50;;;;;;;;5136609;27;45282;-74
2021/08/25 03:32:39;;;;;;;;;17.00;14.00;;;;;;;;5123626;27;45311;-74
2021/08/25 03:35:05;;;;;;;;;16.67;15.00;;;;;;;;5123624;27;48318;-77
2021/08/25 03:37:30;;;;;;;;;13.67;13.67;;;;;;;;5123323;27;45266;-77
2021/08/25 03:39:56;;;;;;;;;13.33;12.33;;;;;;;;5123807;27;45287;-76
2021/08/25 03:42:21;;;;;;;;;11.33;10.67;;;;;;;;5123264;27;45558;-76
2021/08/25 03:44:47;;;;;;;;;12.33;12.00;;;;;;;;5123481;27;47866;-76
2021/08/25 03:47:12;;;;;;;;;18.33;17.33;;;;;;;;5123295;27;45242;-77
2021/08/25 03:49:37;;;;;;;;;16.00;16.00;;;;;;;;5123654;27;45230;-75
2021/08/25 03:52:03;;;;;;;;;17.33;16.33;;;;;;;;5123475;27;45664;-75
2021/08/25 03:54:28;;;;;;;;;11.00;11.00;;;;;;;;5141936;27;45947;-75
2021/08/25 03:56:54;;;;;;;;;13.67;13.67;;;;;;;;5123529;27;46071;-74
2021/08/25 03:59:20;;;;;;;;;13.67;13.67;;;;;;;;5123625;27;45406;-75
2021/08/25 04:01:46;;;;;;;;;12.00;11.33;;;;;;;;5123306;27;45331;-75
2021/08/25 04:04:11;;;;;;;;;10.33;10.33;;;;;;;;5123338;27;45898;-75
2021/08/25 04:06:37;;;;;;;;;15.00;15.00;;;;;;;;5123156;27;45357;-74
2021/08/25 04:09:03;;;;;;;;;14.00;12.33;;;;;;;;5122853;27;45367;-77
2021/08/25 04:11:28;;;;;;;;;18.67;18.67;;;;;;;;5123047;27;46100;-77
2021/08/25 04:13:54;;;;;;;;;18.33;18.00;;;;;;;;5122275;27;45950;-77
2021/08/25 04:16:20;;;;;;;;;49.25;38.00;;;;;;;;5123059;27;45601;-77
2021/08/25 04:18:48;;;;;;;;;39.75;36.50;;;;;;;;5122966;27;45340;-77
2021/08/25 04:21:14;;;;;;;;;58.75;45.00;;;;;;;;5122874;27;45584;-75
2021/08/25 04:23:40;;;;;;;;;101.25;93.75;;;;;;;;5122789;27;47851;-75
2021/08/25 04:26:05;;;;;;;;;83.00;71.75;;;;;;;;5137609;27;45332;-75
2021/08/25 04:28:31;;;;;;;;;53.75;41.75;;;;;;;;5140289;27;45277;-75
2021/08/25 04:30:56;;;;;;;;;32.33;27.33;;;;;;;;5140020;27;45385;-74
2021/08/25 04:33:22;;;;;;;;;58.25;45.75;;;;;;;;5139970;27;46060;-75
2021/08/25 04:35:48;;;;;;;;;77.00;69.00;;;;;;;;5139439;27;45477;-76
2021/08/25 04:38:13;;;;;;;;;49.00;39.00;;;;;;;;5139902;27;45329;-76
2021/08/25 04:40:39;;;;;;;;;35.33;30.00;;;;;;;;5139787;27;45569;-76
2021/08/25 04:43:05;;;;;;;;;37.00;31.00;;;;;;;;5139726;27;45830;-76
2021/08/25 04:45:30;;;;;;;;;49.25;39.50;;;;;;;;5139817;27;45292;-77
2021/08/25 04:47:55;;;;;;;;;66.50;50.50;;;;;;;;5139952;27;45219;-75
2021/08/25 04:50:22;;;;;;;;;73.50;60.50;;;;;;;;5139898;27;46300;-74
2021/08/25 04:52:50;;;;;;;;;72.50;56.75;;;;;;;;5139866;27;47037;-74
2021/08/25 04:55:16;;;;;;;;;55.75;42.75;;;;;;;;5139650;27;45340;-74
2021/08/25 04:57:41;;;;;;;;;20.00;18.33;;;;;;;;5139966;27;45320;-74
2021/08/25 05:00:07;;;;;;;;;20.67;20.67;;;;;;;;5139753;27;45745;-74
2021/08/25 05:02:34;;;;;;;;;32.00;28.67;;;;;;;;5139829;27;45551;-74
2021/08/25 05:04:59;;;;;;;;;20.67;18.33;;;;;;;;5139732;27;45356;-74
2021/08/25 05:07:25;;;;;;;;;13.67;13.67;;;;;;;;5139821;27;45354;-75
2021/08/25 05:09:50;;;;;;;;;15.67;14.67;;;;;;;;5139645;27;45499;-74
2021/08/25 05:12:17;;;;;;;;;14.00;12.67;;;;;;;;5139540;27;46261;-75
2021/08/25 05:14:43;;;;;;;;;12.00;11.67;;;;;;;;5139705;27;45332;-77
2021/08/25 05:17:08;;;;;;;;;11.00;9.33;;;;;;;;5139752;27;45273;-76
2021/08/25 05:19:34;;;;;;;;;9.00;9.00;;;;;;;;5138681;27;45416;-76
2021/08/25 05:22:03;;;;;;;;;13.00;12.33;;;;;;;;5139464;27;48191;-77
2021/08/25 05:24:28;;;;;;;;;12.33;12.33;;;;;;;;5142778;27;45352;-77
2021/08/25 05:26:55;;;;;;;;;13.67;13.67;;;;;;;;5145295;27;45372;-75
2021/08/25 05:29:20;;;;;;;;;11.67;11.67;;;;;;;;5146240;27;45585;-75
2021/08/25 05:31:46;;;;;;;;;14.00;11.67;;;;;;;;5125565;27;45653;-74
2021/08/25 05:34:12;;;;;;;;;16.00;14.00;;;;;;;;5124113;27;45188;-75
2021/08/25 05:36:40;;;;;;;;;27.33;20.00;;;;;;;;5125676;27;45285;-75
2021/08/25 05:39:05;;;;;;;;;18.67;17.33;;;;;;;;5125398;27;46471;-77
2021/08/25 05:41:31;;;;;;;;;52.25;41.75;;;;;;;;5125041;27;45486;-76
2021/08/25 05:43:56;;;;;;;;;46.00;35.67;;;;;;;;5125574;27;45436;-78
2021/08/25 05:46:22;;;;;;;;;30.00;27.00;;;;;;;;5125384;27;45247;-78
2021/08/25 05:48:47;;;;;;;;;39.00;33.67;;;;;;;;5144028;27;45342;-77
2021/08/25 05:51:13;;;;;;;;;38.33;34.33;;;;;;;;5143910;27;45435;-75
2021/08/25 05:53:38;;;;;;;;;33.33;29.00;;;;;;;;5144146;27;45308;-75
2021/08/25 05:56:03;;;;;;;;;66.75;51.50;;;;;;;;5144629;27;45276;-75
2021/08/25 05:58:29;;;;;;;;;61.75;46.25;;;;;;;;5144037;27;45380;-76
2021/08/25 06:00:54;;;;;;;;;32.00;24.67;;;;;;;;5144007;27;45492;-76
2021/08/25 06:03:19;;;;;;;;;76.75;67.00;;;;;;;;5143945;27;45340;-76
2021/08/25 06:05:45;;;;;;;;;112.00;93.75;;;;;;;;5119510;27;45341;-77
2021/08/25 06:08:10;;;;;;;;;141.25;123.75;;;;;;;;5123054;27;45269;-77
2021/08/25 06:10:35;;;;;;;;;81.50;68.75;;;;;;;;5123313;27;46174;-77
2021/08/25 06:13:01;;;;;;;;;61.75;49.25;;;;;;;;5123081;27;45252;-77
2021/08/25 06:15:26;;;;;;;;;72.25;54.00;;;;;;;;5123085;27;45251;-76
2021/08/25 06:17:51;;;;;;;;;73.25;58.25;;;;;;;;5123034;27;45413;-76
2021/08/25 06:20:23;;;;;;;;;73.00;58.25;;;;;;;;5122752;27;45366;-77
2021/08/25 06:22:49;;;;;;;;;103.50;90.50;;;;;;;;5120775;27;45424;-78
2021/08/25 06:25:14;;;;;;;;;59.00;46.75;;;;;;;;5132498;27;45436;-77
2021/08/25 06:27:39;;;;;;;;;85.50;68.75;;;;;;;;5143225;27;45359;-78
2021/08/25 06:30:06;;;;;;;;;92.25;81.00;;;;;;;;5143319;27;45454;-76
2021/08/25 06:32:31;;;;;;;;;62.00;47.00;;;;;;;;5143320;27;45311;-77
2021/08/25 06:34:57;;;;;;;;;76.50;60.25;;;;;;;;5141866;27;45352;-73
2021/08/25 06:37:22;;;;;;;;;74.00;56.25;;;;;;;;5141647;27;45451;-73
2021/08/25 06:39:59;;;;;;;;;96.00;84.75;;;;;;;;5140458;27;46328;-72
2021/08/25 06:42:26;;;;;;;;;84.00;74.00;;;;;;;;5139861;27;45357;-72
2021/08/25 06:44:52;;;;;;;;;104.00;83.00;;;;;;;;5140726;27;45418;-72
2021/08/25 06:47:20;;;;;;;;;65.50;49.50;;;;;;;;5140566;27;45386;-72
2021/08/25 06:49:55;;;;;;;;;98.25;86.50;;;;;;;;5140166;27;47046;-72
2021/08/25 06:52:21;;;;;;;;;41.25;35.00;;;;;;;;5140045;27;45347;-72
2021/08/25 06:54:46;;;;;;;;;52.75;41.75;;;;;;;;5142432;27;45391;-72
2021/08/25 06:57:12;;;;;;;;;34.00;30.33;;;;;;;;5143112;27;45256;-73
2021/08/25 06:59:37;;;;;;;;;23.33;21.33;;;;;;;;5143003;27;45997;-73
2021/08/25 07:02:10;;;;;;;;;16.33;16.33;;;;;;;;5143109;27;45264;-73
2021/08/25 07:04:35;;;;;;;;;14.33;14.00;;;;;;;;5141615;27;45188;-73
2021/08/25 07:07:01;;;;;;;;;21.00;21.00;;;;;;;;5141327;27;45237;-72
2021/08/25 07:09:37;;;;;;;;;11.67;11.67;;;;;;;;5141110;27;45777;-73
2021/08/25 07:12:02;;;;;;;;;13.33;12.33;;;;;;;;5141348;27;45319;-73
2021/08/25 07:14:28;;;;;;;;;11.67;10.00;;;;;;;;5141562;27;45240;-73
2021/08/25 07:16:54;;;;;;;;;12.33;10.33;;;;;;;;5141409;27;45438;-73
2021/08/25 07:19:19;;;;;;;;;13.67;11.33;;;;;;;;5141236;27;47242;-73
2021/08/25 07:21:44;;;;;;;;;13.33;11.33;;;;;;;;5142706;27;45152;-72
2021/08/25 07:24:10;;;;;;;;;15.00;14.00;;;;;;;;5144769;27;45841;-73
2021/08/25 07:26:35;;;;;;;;;11.33;11.33;;;;;;;;5163476;27;45336;-73
2021/08/25 07:29:00;;;;;;;;;10.00;10.00;;;;;;;;5163462;27;45437;-73
2021/08/25 07:31:26;;;;;;;;;10.33;9.33;;;;;;;;5163328;27;45294;-74
2021/08/25 07:33:51;;;;;;;;;13.00;13.00;;;;;;;;5144894;27;45549;-73
2021/08/25 07:36:17;;;;;;;;;24.33;24.33;;;;;;;;5163301;27;45365;-73
2021/08/25 07:38:42;;;;;;;;;58.00;45.50;;;;;;;;5143853;27;46865;-73
2021/08/25 07:41:08;;;;;;;;;91.50;85.50;;;;;;;;5163101;27;45338;-73
2021/08/25 07:43:33;;;;;;;;;60.00;46.50;;;;;;;;5163498;27;45283;-72
2021/08/25 07:45:58;;;;;;;;;35.33;31.00;;;;;;;;5163073;27;45538;-73
2021/08/25 07:48:24;;;;;;;;;110.00;94.25;;;;;;;;5162129;27;45296;-73
2021/08/25 07:50:49;;;;;;;;;109.50;100.50;;;;;;;;5163214;27;45314;-73
2021/08/25 07:53:15;;;;;;;;;80.00;63.00;;;;;;;;5162976;27;45308;-73
2021/08/25 07:55:41;;;;;;;;;65.00;48.50;;;;;;;;5163160;27;45544;-73
2021/08/25 07:58:06;;;;;;;;;85.00;74.00;;;;;;;;5163109;27;46173;-73
2021/08/25 08:00:31;;;;;;;;;35.33;31.00;;;;;;;;5163058;27;45148;-73
2021/08/25 08:02:57;;;;;;;;;67.75;53.25;;;;;;;;5163188;27;45255;-73
2021/08/25 08:05:22;;;;;;;;;24.00;22.67;;;;;;;;5144089;27;45526;-73
2021/08/25 08:07:47;;;;;;;;;46.00;39.67;;;;;;;;5162853;27;45241;-72
2021/08/25 08:10:13;;;;;;;;;70.50;55.75;;;;;;;;5162768;27;45300;-72
2021/08/25 08:12:38;;;;;;;;;61.75;49.50;;;;;;;;5163140;27;45347;-73
2021/08/25 08:15:10;;;;;;;;;8.00;7.33;;;;;;;;5162839;27;45197;-74
2021/08/25 08:17:35;;;;;;;;;11.00;11.00;;;;;;;;5162885;27;45477;-74
2021/08/25 08:20:00;;;;;;;;;112.00;99.50;;;;;;;;5143946;27;45248;-73
2021/08/25 08:22:26;;;;;;;;;42.00;32.67;;;;;;;;5162845;27;45225;-73
2021/08/25 08:24:51;;;;;;;;;9.00;9.00;;;;;;;;5162386;27;45235;-73
2021/08/25 08:27:18;;;;;;;;;23.00;20.00;;;;;;;;5162522;27;45268;-73
2021/08/25 08:29:43;;;;;;;;;15.33;15.00;;;;;;;;5139847;27;45230;-73
2021/08/25 08:32:09;;;;;;;;;29.33;26.67;;;;;;;;5141902;27;45405;-73
2021/08/25 08:34:35;;;;;;;;;47.67;37.67;;;;;;;;5141621;27;45208;-73
2021/08/25 08:37:00;;;;;;;;;25.67;22.67;;;;;;;;5141321;27;45986;-73
2021/08/25 08:39:26;;;;;;;;;59.25;47.50;;;;;;;;5141429;27;45422;-73
2021/08/25 08:41:51;;;;;;;;;30.67;29.00;;;;;;;;5141505;27;45316;-73
2021/08/25 08:44:18;;;;;;;;;53.75;45.25;;;;;;;;5141498;27;45299;-72
2021/08/25 08:46:47;;;;;;;;;21.67;19.67;;;;;;;;5141126;27;45350;-73
2021/08/25 08:49:13;;;;;;;;;27.00;22.00;;;;;;;;5122645;27;45746;-73
2021/08/25 08:51:39;;;;;;;;;45.33;36.00;;;;;;;;5141401;27;45156;-72
2021/08/25 08:54:05;;;;;;;;;40.33;34.00;;;;;;;;5141032;27;45420;-73
2021/08/25 08:56:30;;;;;;;;;73.75;61.75;;;;;;;;5141233;27;45927;-72
2021/08/25 08:58:57;;;;;;;;;36.33;31.00;;;;;;;;5122654;27;45366;-72
2021/08/25 09:01:23;;;;;;;;;18.00;14.00;;;;;;;;5145049;27;45529;-73
2021/08/25 09:03:48;;;;;;;;;17.00;16.00;;;;;;;;5145000;27;45436;-73
2021/08/25 09:06:14;;;;;;;;;65.75;48.50;;;;;;;;5144695;27;45986;-72
2021/08/25 09:08:39;;;;;;;;;70.00;57.25;;;;;;;;5144612;27;45328;-73
2021/08/25 09:11:08;;;;;;;;;47.00;37.00;;;;;;;;5145073;27;45441;-72
2021/08/25 09:13:50;;;;;;;;;14.67;14.00;;;;;;;;5144756;27;45214;-74
2021/08/25 09:16:31;;;;;;;;;15.67;14.00;;;;;;;;5144706;27;45384;-74
2021/08/25 09:19:04;;;;;;;;;9.33;9.33;;;;;;;;5144798;27;45329;-73
2021/08/25 09:21:33;;;;;;;;;14.67;14.33;;;;;;;;5144602;27;45225;-74
2021/08/25 09:23:59;;;;;;;;;13.67;13.00;;;;;;;;5144730;27;45510;-73
2021/08/25 09:26:24;;;;;;;;;68.25;54.25;;;;;;;;5146408;27;45390;-73
2021/08/25 09:28:51;;;;;;;;;71.00;59.25;;;;;;;;5165397;27;45250;-72
2021/08/25 09:31:16;;;;;;;;;35.00;32.67;;;;;;;;5165512;27;45221;-73
2021/08/25 09:33:43;;;;;;;;;52.50;41.50;;;;;;;;5165292;27;45234;-72
2021/08/25 09:36:10;;;;;;;;;14.00;13.67;;;;;;;;5165347;27;46106;-74
2021/08/25 09:38:36;;;;;;;;;12.67;12.67;;;;;;;;5165150;27;45653;-73
2021/08/25 09:41:04;;;;;;;;;12.33;10.67;;;;;;;;5165514;27;45288;-72
2021/08/25 09:43:43;;;;;;;;;64.00;49.75;;;;;;;;5165296;27;45477;-73
2021/08/25 09:46:13;;;;;;;;;17.00;15.33;;;;;;;;5164912;27;46043;-72
2021/08/25 09:48:43;;;;;;;;;93.75;84.00;;;;;;;;5146199;27;45326;-73
2021/08/25 09:51:09;;;;;;;;;56.33;46.33;;;;;;;;5165159;27;45164;-72
2021/08/25 09:53:35;;;;;;;;;25.33;21.33;;;;;;;;5146019;27;45516;-73
2021/08/25 09:56:00;;;;;;;;;48.33;39.33;;;;;;;;5164885;27;45445;-73
2021/08/25 09:58:26;;;;;;;;;11.00;11.00;;;;;;;;5165138;27;45296;-73
2021/08/25 10:00:53;;;;;;;;;61.75;48.75;;;;;;;;5165223;27;45307;-73
2021/08/25 10:03:18;;;;;;;;;31.00;27.33;;;;;;;;5164960;27;45428;-73
2021/08/25 10:05:45;;;;;;;;;13.67;12.00;;;;;;;;5164943;27;45698;-73
2021/08/25 10:08:11;;;;;;;;;63.25;50.75;;;;;;;;5164528;27;45221;-73
2021/08/25 10:10:36;;;;;;;;;26.00;25.33;;;;;;;;5164949;27;45173;-73
2021/08/25 10:13:02;;;;;;;;;24.33;23.67;;;;;;;;5164075;27;45442;-73
2021/08/25 10:15:30;;;;;;;;;9.00;9.00;;;;;;;;5164844;27;46534;-73
2021/08/25 10:17:56;;;;;;;;;13.33;12.00;;;;;;;;5164739;27;45339;-74
2021/08/25 10:20:33;;;;;;;;;12.00;12.00;;;;;;;;5145794;27;45325;-73
2021/08/25 10:22:58;;;;;;;;;30.67;27.00;;;;;;;;5164388;27;45349;-73
2021/08/25 10:25:26;;;;;;;;;10.67;10.67;;;;;;;;5164286;27;46291;-73
2021/08/25 10:28:02;;;;;;;;;29.67;25.33;;;;;;;;5164691;27;45296;-73
2021/08/25 10:30:28;;;;;;;;;33.33;31.33;;;;;;;;5164541;27;45279;-73
2021/08/25 10:32:53;;;;;;;;;17.67;17.67;;;;;;;;5145344;27;45838;-74
2021/08/25 10:35:18;;;;;;;;;11.33;11.33;;;;;;;;5164332;27;45270;-73
2021/08/25 10:37:46;;;;;;;;;17.00;16.33;;;;;;;;5164190;27;45286;-73
2021/08/25 10:40:11;;;;;;;;;23.67;22.33;;;;;;;;5164543;27;45339;-74
2021/08/25 10:42:59;;;;;;;;;30.67;25.33;;;;;;;;5163907;27;45428;-74
2021/08/25 10:45:43;;;;;;;;;29.67;28.67;;;;;;;;5163887;27;45416;-74
2021/08/25 10:48:09;;;;;;;;;16.67;15.67;;;;;;;;5164832;27;45292;-74
2021/08/25 10:50:53;;;;;;;;;12.33;11.67;;;;;;;;5164608;27;45333;-73
2021/08/25 10:53:28;;;;;;;;;20.00;20.00;;;;;;;;5163859;27;45450;-74
2021/08/25 10:56:12;;;;;;;;;19.00;17.00;;;;;;;;5164081;27;45325;-73
2021/08/25 10:58:45;;;;;;;;;18.67;16.67;;;;;;;;5163958;27;45286;-75
2021/08/25 11:01:20;;;;;;;;;13.67;12.33;;;;;;;;5164217;27;45419;-73
2021/08/25 11:03:48;;;;;;;;;25.00;21.67;;;;;;;;5163960;27;45225;-73
2021/08/25 11:06:26;;;;;;;;;22.00;21.00;;;;;;;;5163649;27;45988;-73
2021/08/25 11:08:52;;;;;;;;;28.67;23.67;;;;;;;;5163613;27;45179;-73
2021/08/25 11:11:17;;;;;;;;;17.67;17.00;;;;;;;;5163963;27;45594;-73
2021/08/25 11:13:42;;;;;;;;;11.33;11.00;;;;;;;;5163715;27;45213;-73
2021/08/25 11:16:23;;;;;;;;;15.67;15.00;;;;;;;;5163746;27;45323;-73
2021/08/25 11:18:49;;;;;;;;;25.33;23.00;;;;;;;;5163791;27;45344;-75
2021/08/25 11:21:14;;;;;;;;;15.33;14.00;;;;;;;;5163806;27;45227;-73
2021/08/25 11:23:56;;;;;;;;;12.33;12.00;;;;;;;;5162158;27;45350;-74
2021/08/25 11:26:21;;;;;;;;;14.00;12.33;;;;;;;;5144777;27;46637;-73
2021/08/25 11:28:46;;;;;;;;;17.67;17.67;;;;;;;;5163463;27;45389;-74
2021/08/25 11:31:13;;;;;;;;;17.00;17.00;;;;;;;;5163409;27;45336;-73
2021/08/25 11:33:45;;;;;;;;;20.33;20.33;;;;;;;;5163525;27;45332;-74
2021/08/25 11:36:10;;;;;;;;;15.00;15.00;;;;;;;;5163217;27;45359;-73
2021/08/25 11:38:36;;;;;;;;;21.67;19.33;;;;;;;;5144207;27;45461;-73
2021/08/25 11:41:01;;;;;;;;;13.67;13.67;;;;;;;;5144656;27;45227;-73
2021/08/25 11:43:27;;;;;;;;;16.00;13.67;;;;;;;;5144412;27;46033;-73
2021/08/25 11:45:53;;;;;;;;;10.33;10.00;;;;;;;;5163142;27;45588;-74
2021/08/25 11:48:28;;;;;;;;;12.33;12.33;;;;;;;;5163313;27;45411;-73
2021/08/25 11:50:54;;;;;;;;;14.33;14.33;;;;;;;;5144589;27;45356;-73
2021/08/25 11:53:20;;;;;;;;;13.00;12.33;;;;;;;;5162776;27;45336;-73
2021/08/25 11:55:47;;;;;;;;;14.00;14.00;;;;;;;;5163180;27;46079;-73
2021/08/25 11:58:33;;;;;;;;;21.33;20.00;;;;;;;;5163085;27;45226;-74
2021/08/25 12:00:59;;;;;;;;;12.67;12.00;;;;;;;;5144351;27;45295;-74
2021/08/25 12:03:40;;;;;;;;;15.00;15.00;;;;;;;;5144150;27;45967;-74
2021/08/25 12:06:06;;;;;;;;;12.00;11.00;;;;;;;;5143938;27;47396;-73
2021/08/25 12:08:40;;;;;;;;;28.00;25.00;;;;;;;;5162774;27;45306;-74
2021/08/25 12:11:06;;;;;;;;;11.67;11.33;;;;;;;;5163146;27;45201;-74
2021/08/25 12:13:36;;;;;;;;;13.33;12.00;;;;;;;;5162880;27;45470;-73
2021/08/25 12:16:02;;;;;;;;;20.00;19.67;;;;;;;;5162772;27;45335;-73
2021/08/25 12:18:29;;;;;;;;;12.00;11.33;;;;;;;;5162802;27;45348;-74
2021/08/25 12:20:55;;;;;;;;;16.33;16.33;;;;;;;;5162938;27;45278;-74
2021/08/25 12:23:22;;;;;;;;;11.33;11.33;;;;;;;;5162466;27;45354;-74
2021/08/25 12:25:52;;;;;;;;;12.00;12.00;;;;;;;;5162534;27;45298;-73
2021/08/25 12:28:33;;;;;;;;;19.00;17.67;;;;;;;;5162617;27;45369;-75
2021/08/25 12:31:17;;;;;;;;;13.67;13.00;;;;;;;;5162518;27;45222;-74
2021/08/25 12:33:43;;;;;;;;;12.67;12.67;;;;;;;;5162466;27;45560;-73
2021/08/25 12:36:18;;;;;;;;;12.67;12.67;;;;;;;;5165633;27;45402;-74
2021/08/25 12:38:44;;;;;;;;;12.00;12.00;;;;;;;;5166237;27;45186;-74
2021/08/25 12:41:09;;;;;;;;;13.00;11.67;;;;;;;;5166441;27;45147;-74
2021/08/25 12:43:34;;;;;;;;;11.67;10.67;;;;;;;;5166405;27;45201;-74
2021/08/25 12:45:59;;;;;;;;;19.00;18.00;;;;;;;;5147112;27;45256;-74
2021/08/25 12:48:25;;;;;;;;;11.33;10.00;;;;;;;;5166247;27;45194;-73
2021/08/25 12:50:50;;;;;;;;;13.67;13.67;;;;;;;;5147442;27;45176;-74
2021/08/25 12:53:15;;;;;;;;;12.00;11.67;;;;;;;;5165853;27;45375;-74
2021/08/25 12:55:41;;;;;;;;;14.00;12.67;;;;;;;;5147144;27;47060;-74
2021/08/25 12:58:06;;;;;;;;;15.00;13.33;;;;;;;;5166069;27;45327;-74
2021/08/25 13:00:37;;;;;;;;;15.00;15.00;;;;;;;;5166278;27;45239;-74
2021/08/25 13:03:03;;;;;;;;;12.33;12.33;;;;;;;;5166051;27;45260;-74
2021/08/25 13:05:28;;;;;;;;;10.33;10.33;;;;;;;;5165901;27;45240;-75
2021/08/25 13:07:53;;;;;;;;;13.00;13.00;;;;;;;;5165544;27;45164;-74
2021/08/25 13:10:19;;;;;;;;;11.33;10.00;;;;;;;;5165968;27;45499;-74
2021/08/25 13:12:44;;;;;;;;;13.00;13.00;;;;;;;;5146898;27;45347;-74
2021/08/25 13:15:10;;;;;;;;;13.33;12.33;;;;;;;;5165715;27;45225;-74
2021/08/25 13:17:35;;;;;;;;;12.00;10.67;;;;;;;;5165873;27;45155;-74
2021/08/25 13:20:00;;;;;;;;;13.33;13.33;;;;;;;;5165910;27;45377;-73
2021/08/25 13:22:26;;;;;;;;;11.00;10.33;;;;;;;;5165575;27;45362;-74
2021/08/25 13:24:51;;;;;;;;;11.00;11.00;;;;;;;;5173456;27;45320;-74
2021/08/25 13:27:16;;;;;;;;;13.33;12.00;;;;;;;;5186726;27;45294;-74
2021/08/25 13:29:42;;;;;;;;;9.33;9.33;;;;;;;;5183295;27;45258;-74
2021/08/25 13:32:07;;;;;;;;;21.67;21.00;;;;;;;;5165612;27;45481;-74
2021/08/25 13:34:33;;;;;;;;;13.00;12.67;;;;;;;;5165462;27;46360;-74
2021/08/25 13:36:58;;;;;;;;;11.67;11.00;;;;;;;;5165393;27;45270;-74
2021/08/25 13:39:23;;;;;;;;;14.00;14.00;;;;;;;;5165426;27;45230;-73
2021/08/25 13:41:49;;;;;;;;;24.33;22.00;;;;;;;;5165261;27;45460;-73
2021/08/25 13:44:14;;;;;;;;;30.33;25.33;;;;;;;;5146459;27;45304;-73
2021/08/25 13:46:39;;;;;;;;;15.00;15.00;;;;;;;;5144973;27;45386;-74
2021/08/25 13:49:05;;;;;;;;;13.00;12.00;;;;;;;;5165424;27;45308;-74
2021/08/25 13:51:30;;;;;;;;;18.33;15.00;;;;;;;;5146140;27;46555;-73
2021/08/25 13:53:55;;;;;;;;;16.33;15.33;;;;;;;;5164902;27;45369;-74
2021/08/25 13:56:21;;;;;;;;;30.67;28.67;;;;;;;;5146126;27;45387;-74
2021/08/25 13:58:46;;;;;;;;;47.67;37.00;;;;;;;;5165265;27;45278;-73
2021/08/25 14:01:11;;;;;;;;;45.00;37.33;;;;;;;;5165007;27;45209;-74
2021/08/25 14:03:37;;;;;;;;;32.67;29.33;;;;;;;;5164975;27;46174;-73
2021/08/25 14:06:02;;;;;;;;;23.33;20.00;;;;;;;;5165052;27;45247;-74
2021/08/25 14:08:28;;;;;;;;;38.00;32.67;;;;;;;;5164721;27;45272;-74
2021/08/25 14:10:53;;;;;;;;;20.67;20.00;;;;;;;;5164809;27;45417;-74
2021/08/25 14:13:19;;;;;;;;;15.33;14.67;;;;;;;;5164712;27;46043;-74
2021/08/25 14:15:45;;;;;;;;;15.00;15.00;;;;;;;;5164881;27;45159;-75
2021/08/25 14:18:10;;;;;;;;;80.00;70.50;;;;;;;;5164792;27;45210;-74
2021/08/25 14:20:35;;;;;;;;;17.67;16.67;;;;;;;;5164675;27;45555;-74